Hlavní strana
METAR-TAF:

METAR-TAF

Letiště :

Letiště Rijeka

Rijeka, Chorvatsko

zeměpisná šířka: 45-13N, zeměpisná délka: 014-35E, výška: 85 m

Aktuální stav počasí

Zpráva byla vytvořena před 28 minutami, v 20:00 UTC
Východoseverovýchodní vítr 4 kt
Teplota 4°C
Vlhkost vzduchu 65%
Tlak 1019 hPa
Viditelnost 10 km a více
Žádná oblačnost pod 1500 m, nevyskytují se cumulonimby.

METAR: LDRI 112000Z 07004KT CAVOK 04/M02 Q1019

Čas: 21:28 (20:28 UTC)

Předpověď počasí

Zpráva byla vytvořena před 2 hodinami a 55 minutami, v 17:33 UTC
Předpověď platná od 11 v 18 UTC do 12 v 18 UTC
Severovýchodní vítr 6 kt
Viditelnost 10 km a více
Skoro jasno ve výšce 4500 ft
Pravděpodobnost 30% :
Dočasný
od 12 v 12 UTC do 12 v 15 UTC
Západoseverozápadní vítr 7 kt

TAF: LDRI 111733Z 1118/1218 04006KT 9999 FEW045 TX12/1213Z TN02/1205Z PROB30 TEMPO 1212/1215 30007KT

Stav a předpovědi počasí z více než 4 000 letišť (zprávy METAR a TAF).

Červené a žluté tečky na mapě představují dostupné meteorologické stanice.

Když kurzor umístíte na tečku, zobrazí se název stanice.

Pak kliknutím zobrazíte stav a předpověď počasí.

Chcete-li změnit mapu, kliknutím na zelené tlačítko se znaménkem +mapu přiblížíte, kliknutím na zelené tlačítko se znaménkem – mapu oddálíte a kliknutím na zelené šipky přejdete na sousední mapy.


METAR-TAF: